createdAt,value
2018-03-28T00:00:45.391Z,0
2018-03-28T00:01:44.952Z,0
2018-03-28T00:02:44.653Z,0
2018-03-28T00:03:45.430Z,0
2018-03-28T00:04:45.765Z,0
2018-03-28T00:05:45.475Z,0
2018-03-28T00:06:45.225Z,0
2018-03-28T00:07:44.729Z,0
2018-03-28T00:08:45.579Z,0
2018-03-28T00:09:45.522Z,0
2018-03-28T00:10:45.287Z,0
2018-03-28T00:11:45.811Z,0
2018-03-28T00:12:45.622Z,0
2018-03-28T00:13:45.334Z,0
2018-03-28T00:14:45.602Z,0
2018-03-28T00:15:45.366Z,0
2018-03-28T00:16:45.637Z,0
2018-03-28T00:17:45.407Z,0
2018-03-28T00:18:45.665Z,0
2018-03-28T00:19:45.935Z,0
2018-03-28T00:20:45.709Z,0
2018-03-28T00:21:45.468Z,0
2018-03-28T00:22:45.979Z,0
2018-03-28T00:23:45.539Z,0
2018-03-28T00:24:46.025Z,0
2018-03-28T00:25:46.032Z,0
2018-03-28T00:26:46.052Z,0
2018-03-28T00:27:45.822Z,0
2018-03-28T00:28:45.554Z,0
2018-03-28T00:29:45.806Z,0
2018-03-28T00:30:46.117Z,0
2018-03-28T00:31:45.106Z,0
2018-03-28T00:32:46.156Z,0
2018-03-28T00:33:45.909Z,0
2018-03-28T00:34:45.920Z,0
2018-03-28T00:35:45.933Z,0
2018-03-28T00:36:46.201Z,0
2018-03-28T00:37:45.961Z,0
2018-03-28T00:38:46.040Z,0
2018-03-28T00:39:45.245Z,0
2018-03-28T00:40:46.267Z,0
2018-03-28T00:41:46.025Z,0
2018-03-28T00:42:46.277Z,0
2018-03-28T00:43:46.342Z,0
2018-03-28T00:44:46.059Z,0
2018-03-28T00:45:46.086Z,0
2018-03-28T00:46:45.863Z,0
2018-03-28T00:47:46.375Z,0
2018-03-28T00:48:46.391Z,0
2018-03-28T00:49:46.178Z,0
2018-03-28T00:50:45.922Z,0
2018-03-28T00:51:46.188Z,0
2018-03-28T00:52:46.463Z,0
2018-03-28T00:53:45.706Z,0
2018-03-28T00:54:45.723Z,0
2018-03-28T00:55:45.731Z,0
2018-03-28T00:56:45.742Z,0
2018-03-28T00:57:46.279Z,0
2018-03-28T00:58:46.083Z,0
2018-03-28T00:59:46.314Z,0
2018-03-28T01:00:45.810Z,0
2018-03-28T01:01:46.613Z,0
2018-03-28T01:02:46.104Z,0
2018-03-28T01:03:46.621Z,0
2018-03-28T01:04:46.653Z,0
2018-03-28T01:05:46.398Z,0
2018-03-28T01:06:46.413Z,0
2018-03-28T01:07:46.180Z,0
2018-03-28T01:08:46.704Z,0
2018-03-28T01:09:46.461Z,0
2018-03-28T01:10:46.218Z,0
2018-03-28T01:11:46.752Z,0
2018-03-28T01:12:46.252Z,0
2018-03-28T01:13:46.598Z,0
2018-03-28T01:14:46.795Z,0
2018-03-28T01:15:46.565Z,0
2018-03-28T01:16:46.307Z,0
2018-03-28T01:17:46.579Z,0
2018-03-28T01:18:46.092Z,0
2018-03-28T01:19:46.379Z,0
2018-03-28T01:20:46.633Z,0
2018-03-28T01:21:46.898Z,0
2018-03-28T01:22:46.657Z,0
2018-03-28T01:23:46.927Z,0
2018-03-28T01:24:47.003Z,0
2018-03-28T01:25:46.699Z,0
2018-03-28T01:26:46.968Z,0
2018-03-28T01:27:46.730Z,0
2018-03-28T01:28:46.746Z,0
2018-03-28T01:29:46.512Z,0
2018-03-28T01:30:46.776Z,0
2018-03-28T01:31:47.054Z,0
2018-03-28T01:32:47.077Z,0
2018-03-28T01:33:46.562Z,0
2018-03-28T01:34:47.087Z,0
2018-03-28T01:35:46.903Z,0
2018-03-28T01:36:47.128Z,0
2018-03-28T01:37:46.626Z,0
2018-03-28T01:38:46.895Z,0
2018-03-28T01:39:46.982Z,0
2018-03-28T01:40:46.948Z,0
2018-03-28T01:41:46.691Z,0
2018-03-28T01:42:47.208Z,0
2018-03-28T01:43:46.966Z,0
2018-03-28T01:44:46.985Z,0
2018-03-28T01:45:46.748Z,0
2018-03-28T01:46:47.266Z,0
2018-03-28T01:47:47.290Z,0
2018-03-28T01:48:46.792Z,0
2018-03-28T01:49:46.810Z,0
2018-03-28T01:50:47.103Z,0
2018-03-28T01:51:47.091Z,0
2018-03-28T01:52:47.388Z,0
2018-03-28T01:53:47.111Z,0
2018-03-28T01:54:46.906Z,0
2018-03-28T01:55:46.865Z,0
2018-03-28T01:56:47.387Z,0
2018-03-28T01:57:47.410Z,0
2018-03-28T01:58:46.928Z,0
2018-03-28T01:59:47.285Z,0
2018-03-28T02:00:47.196Z,0
2018-03-28T02:01:46.715Z,0
2018-03-28T02:02:47.482Z,0
2018-03-28T02:03:47.493Z,0
2018-03-28T02:04:47.510Z,0
2018-03-28T02:05:47.280Z,0
2018-03-28T02:06:47.297Z,0
2018-03-28T02:07:47.554Z,0
2018-03-28T02:08:47.062Z,0
2018-03-28T02:09:47.415Z,0
2018-03-28T02:10:47.145Z,0
2018-03-28T02:11:47.398Z,0
2018-03-28T02:12:47.676Z,0
2018-03-28T02:13:47.431Z,0
2018-03-28T02:14:47.445Z,0
2018-03-28T02:15:46.953Z,0
2018-03-28T02:16:47.729Z,0
2018-03-28T02:17:47.902Z,0
2018-03-28T02:18:47.514Z,0
2018-03-28T02:19:47.813Z,0
2018-03-28T02:20:47.791Z,0
2018-03-28T02:21:47.308Z,0
2018-03-28T02:22:47.822Z,0
2018-03-28T02:23:47.329Z,0
2018-03-28T02:24:47.387Z,0
2018-03-28T02:25:47.612Z,0
2018-03-28T02:26:47.884Z,0
2018-03-28T02:27:47.905Z,0
2018-03-28T02:28:47.401Z,0
2018-03-28T02:29:47.675Z,0
2018-03-28T02:30:47.201Z,0
2018-03-28T02:31:47.212Z,0
2018-03-28T02:32:47.755Z,0
2018-03-28T02:33:48.009Z,0
2018-03-28T02:34:48.009Z,0
2018-03-28T02:35:47.874Z,0
2018-03-28T02:36:47.532Z,0
2018-03-28T02:37:47.540Z,0
2018-03-28T02:38:47.555Z,0
2018-03-28T02:39:47.829Z,0
2018-03-28T02:40:49.997Z,0
2018-03-28T02:41:47.602Z,0
2018-03-28T02:42:47.107Z,0
2018-03-28T02:43:48.152Z,0
2018-03-28T02:44:47.915Z,0
2018-03-28T02:45:47.936Z,0
2018-03-28T02:46:47.941Z,0
2018-03-28T02:47:47.958Z,0
2018-03-28T02:48:47.971Z,0
2018-03-28T02:49:48.004Z,0
2018-03-28T02:50:48.279Z,0
2018-03-28T02:51:47.771Z,0
2018-03-28T02:52:48.050Z,0
2018-03-28T02:53:48.316Z,0
2018-03-28T02:54:48.340Z,0
2018-03-28T02:55:47.868Z,0
2018-03-28T02:56:48.348Z,0
2018-03-28T02:57:47.858Z,0
2018-03-28T02:58:47.623Z,0
2018-03-28T02:59:48.166Z,0
2018-03-28T03:00:48.209Z,0
2018-03-28T03:01:47.912Z,0
2018-03-28T03:02:48.200Z,0
2018-03-28T03:03:47.967Z,0
2018-03-28T03:04:48.217Z,0
2018-03-28T03:05:47.996Z,0
2018-03-28T03:06:48.500Z,0
2018-03-28T03:07:48.278Z,0
2018-03-28T03:08:48.550Z,0
2018-03-28T03:09:48.535Z,0
2018-03-28T03:10:48.561Z,0
2018-03-28T03:11:48.312Z,0
2018-03-28T03:12:48.584Z,0
2018-03-28T03:13:48.710Z,0
2018-03-28T03:14:48.361Z,0
2018-03-28T03:15:48.429Z,0
2018-03-28T03:16:47.881Z,0
2018-03-28T03:17:48.159Z,0
2018-03-28T03:18:48.175Z,0
2018-03-28T03:19:48.444Z,0
2018-03-28T03:20:48.459Z,0
2018-03-28T03:21:48.473Z,0
2018-03-28T03:22:48.234Z,0
2018-03-28T03:23:48.745Z,0
2018-03-28T03:24:48.763Z,0
2018-03-28T03:25:48.525Z,0
2018-03-28T03:26:48.297Z,0
2018-03-28T03:27:48.315Z,0
2018-03-28T03:28:48.584Z,0
2018-03-28T03:29:48.845Z,0
2018-03-28T03:30:48.668Z,0
2018-03-28T03:31:48.661Z,0
2018-03-28T03:32:48.654Z,0
2018-03-28T03:33:48.658Z,0
2018-03-28T03:34:48.689Z,0
2018-03-28T03:35:48.430Z,0
2018-03-28T03:36:48.700Z,0
2018-03-28T03:37:48.974Z,0
2018-03-28T03:38:48.989Z,0
2018-03-28T03:39:48.770Z,0
2018-03-28T03:40:48.505Z,0
2018-03-28T03:41:48.780Z,0
2018-03-28T03:42:48.026Z,0
2018-03-28T03:43:48.806Z,0
2018-03-28T03:44:49.110Z,0
2018-03-28T03:45:48.636Z,0
2018-03-28T03:46:48.087Z,0
2018-03-28T03:47:48.869Z,0
2018-03-28T03:48:49.185Z,0
2018-03-28T03:49:48.645Z,0
2018-03-28T03:50:48.662Z,0
2018-03-28T03:51:49.183Z,0
2018-03-28T03:52:48.944Z,0
2018-03-28T03:53:48.954Z,0
2018-03-28T03:54:48.985Z,0
2018-03-28T03:55:48.984Z,0
2018-03-28T03:56:48.751Z,0
2018-03-28T03:57:49.267Z,0
2018-03-28T03:58:49.374Z,0
2018-03-28T03:59:48.797Z,0
2018-03-28T04:00:48.858Z,0
2018-03-28T04:01:48.824Z,0
2018-03-28T04:02:48.842Z,0
2018-03-28T04:03:49.113Z,0
2018-03-28T04:04:49.127Z,0
2018-03-28T04:05:48.639Z,0
2018-03-28T04:06:49.154Z,0
2018-03-28T04:07:49.218Z,0
2018-03-28T04:08:48.932Z,0
2018-03-28T04:09:48.688Z,0
2018-03-28T04:10:49.215Z,0
2018-03-28T04:11:49.233Z,0
2018-03-28T04:12:49.246Z,0
2018-03-28T04:13:48.997Z,0
2018-03-28T04:14:49.272Z,0
2018-03-28T04:15:49.023Z,0
2018-03-28T04:16:49.604Z,0
2018-03-28T04:17:49.055Z,0
2018-03-28T04:18:49.320Z,0
2018-03-28T04:19:49.590Z,0
2018-03-28T04:20:49.100Z,0
2018-03-28T04:21:50.420Z,0
2018-03-28T04:22:49.384Z,0
2018-03-28T04:23:49.150Z,0
2018-03-28T04:24:49.409Z,0
2018-03-28T04:25:49.904Z,0
2018-03-28T04:26:49.192Z,0
2018-03-28T04:27:49.672Z,0
2018-03-28T04:28:49.227Z,0
2018-03-28T04:29:49.493Z,0
2018-03-28T04:30:49.775Z,0
2018-03-28T04:31:49.579Z,0
2018-03-28T04:32:48.867Z,0
2018-03-28T04:33:49.557Z,0
2018-03-28T04:34:49.832Z,0
2018-03-28T04:35:49.330Z,0
2018-03-28T04:36:49.937Z,0
2018-03-28T04:37:49.618Z,0
2018-03-28T04:38:49.630Z,0
2018-03-28T04:39:49.642Z,0
2018-03-28T04:40:49.911Z,0
2018-03-28T04:41:49.722Z,0
2018-03-28T04:42:49.174Z,0
2018-03-28T04:43:49.839Z,0
2018-03-28T04:44:49.732Z,0
2018-03-28T04:45:49.754Z,0
2018-03-28T04:46:49.499Z,0
2018-03-28T04:47:49.781Z,0
2018-03-28T04:48:50.047Z,0
2018-03-28T04:49:50.058Z,0
2018-03-28T04:50:49.560Z,0
2018-03-28T04:51:49.829Z,0
2018-03-28T04:52:50.097Z,0
2018-03-28T04:53:49.883Z,0
2018-03-28T04:54:50.130Z,0
2018-03-28T04:55:50.120Z,0
2018-03-28T04:56:49.696Z,0
2018-03-28T04:57:49.912Z,0
2018-03-28T04:58:49.921Z,0
2018-03-28T04:59:49.679Z,0
2018-03-28T05:00:49.956Z,0
2018-03-28T05:01:50.018Z,0
2018-03-28T05:02:49.734Z,0
2018-03-28T05:03:50.018Z,0
2018-03-28T05:04:50.291Z,0
2018-03-28T05:05:49.791Z,0
2018-03-28T05:06:49.808Z,0
2018-03-28T05:07:50.078Z,0
2018-03-28T05:08:49.580Z,5
2018-03-28T05:09:49.880Z,5
2018-03-28T05:10:50.131Z,5
2018-03-28T05:11:50.140Z,0
2018-03-28T05:12:49.893Z,0
2018-03-28T05:13:49.934Z,0
2018-03-28T05:14:50.150Z,5
2018-03-28T05:15:50.907Z,5
2018-03-28T05:16:50.203Z,5
2018-03-28T05:17:50.376Z,5
2018-03-28T05:18:50.490Z,5
2018-03-28T05:19:50.008Z,5
2018-03-28T05:20:50.128Z,10
2018-03-28T05:21:50.039Z,10
2018-03-28T05:22:50.819Z,10
2018-03-28T05:23:50.331Z,5
2018-03-28T05:24:50.354Z,10
2018-03-28T05:25:50.097Z,5
2018-03-28T05:26:50.619Z,5
2018-03-28T05:27:50.704Z,5
2018-03-28T05:28:49.888Z,5
2018-03-28T05:29:50.408Z,5
2018-03-28T05:30:49.659Z,10
2018-03-28T05:31:50.180Z,10
2018-03-28T05:32:50.761Z,10
2018-03-28T05:33:49.967Z,10
2018-03-28T05:34:50.536Z,15
2018-03-28T05:35:50.252Z,15
2018-03-28T05:36:50.522Z,15
2018-03-28T05:37:50.330Z,15
2018-03-28T05:38:50.571Z,15
2018-03-28T05:39:50.821Z,15
2018-03-28T05:40:50.580Z,20
2018-03-28T05:41:50.985Z,20
2018-03-28T05:42:50.363Z,25
2018-03-28T05:43:50.882Z,25
2018-03-28T05:44:50.649Z,25
2018-03-28T05:45:50.413Z,20
2018-03-28T05:46:50.427Z,25
2018-03-28T05:47:50.494Z,25
2018-03-28T05:48:50.464Z,30
2018-03-28T05:49:50.784Z,30
2018-03-28T05:50:50.485Z,30
2018-03-28T05:51:51.027Z,30
2018-03-28T05:52:50.528Z,30
2018-03-28T05:53:50.799Z,30
2018-03-28T05:54:50.816Z,35
2018-03-28T05:55:51.131Z,35
2018-03-28T05:56:50.833Z,35
2018-03-28T05:57:50.866Z,35
2018-03-28T05:58:50.868Z,30
2018-03-28T05:59:50.884Z,35
2018-03-28T06:00:50.915Z,30
2018-03-28T06:01:51.211Z,30
2018-03-28T06:02:50.978Z,30
2018-03-28T06:03:51.192Z,30
2018-03-28T06:04:50.716Z,35
2018-03-28T06:05:50.980Z,35
2018-03-28T06:06:51.246Z,35
2018-03-28T06:07:50.754Z,35
2018-03-28T06:08:50.517Z,35
2018-03-28T06:09:50.543Z,35
2018-03-28T06:10:51.312Z,35
2018-03-28T06:11:50.816Z,40
2018-03-28T06:12:51.339Z,45
2018-03-28T06:13:51.133Z,45
2018-03-28T06:14:50.612Z,45
2018-03-28T06:15:50.415Z,50
2018-03-28T06:16:51.447Z,50
2018-03-28T06:17:51.219Z,50
2018-03-28T06:18:50.934Z,55
2018-03-28T06:19:50.957Z,60
2018-03-28T06:20:51.230Z,65
2018-03-28T06:21:51.229Z,70
2018-03-28T06:22:51.259Z,80
2018-03-28T06:23:51.529Z,90
2018-03-28T06:24:51.032Z,95
2018-03-28T06:25:51.582Z,95
2018-03-28T06:26:51.556Z,85
2018-03-28T06:27:51.597Z,85
2018-03-28T06:28:50.832Z,85
2018-03-28T06:29:51.103Z,85
2018-03-28T06:30:51.646Z,80
2018-03-28T06:31:50.639Z,80
2018-03-28T06:32:51.200Z,80
2018-03-28T06:33:51.426Z,85
2018-03-28T06:34:51.191Z,90
2018-03-28T06:35:51.716Z,95
2018-03-28T06:36:51.475Z,100
2018-03-28T06:37:51.495Z,100
2018-03-28T06:38:50.997Z,110
2018-03-28T06:39:51.269Z,115
2018-03-28T06:40:51.537Z,125
2018-03-28T06:41:51.040Z,125
2018-03-28T06:42:51.320Z,125
2018-03-28T06:43:51.331Z,115
2018-03-28T06:44:51.855Z,110
2018-03-28T06:45:51.358Z,105
2018-03-28T06:46:51.636Z,100
2018-03-28T06:47:51.400Z,95
2018-03-28T06:48:51.493Z,90
2018-03-28T06:49:51.694Z,95
2018-03-28T06:50:51.708Z,100
2018-03-28T06:51:51.728Z,105
2018-03-28T06:52:51.740Z,120
2018-03-28T06:53:51.500Z,135
2018-03-28T06:54:52.020Z,140
2018-03-28T06:55:51.778Z,140
2018-03-28T06:56:52.038Z,140
2018-03-28T06:57:51.805Z,145
2018-03-28T06:58:51.837Z,150
2018-03-28T06:59:51.920Z,150
2018-03-28T07:00:52.125Z,150
2018-03-28T07:01:52.155Z,155
2018-03-28T07:02:51.905Z,165
2018-03-28T07:03:52.330Z,160
2018-03-28T07:04:51.938Z,160
2018-03-28T07:05:51.736Z,155
2018-03-28T07:06:51.977Z,165
2018-03-28T07:07:51.735Z,170
2018-03-28T07:08:52.267Z,170
2018-03-28T07:09:51.794Z,170
2018-03-28T07:10:51.265Z,170
2018-03-28T07:11:51.783Z,170
2018-03-28T07:12:52.080Z,170
2018-03-28T07:13:52.095Z,170
2018-03-28T07:14:51.859Z,165
2018-03-28T07:15:52.153Z,165
2018-03-28T07:16:52.143Z,170
2018-03-28T07:17:51.908Z,175
2018-03-28T07:18:52.232Z,180
2018-03-28T07:19:52.460Z,185
2018-03-28T07:20:52.335Z,195
2018-03-28T07:21:52.490Z,190
2018-03-28T07:22:52.250Z,190
2018-03-28T07:23:51.757Z,195
2018-03-28T07:24:51.826Z,195
2018-03-28T07:25:52.310Z,195
2018-03-28T07:26:52.583Z,195
2018-03-28T07:27:52.700Z,195
2018-03-28T07:28:52.107Z,200
2018-03-28T07:29:52.373Z,205
2018-03-28T07:30:52.139Z,205
2018-03-28T07:31:52.157Z,205
2018-03-28T07:32:51.669Z,200
2018-03-28T07:33:51.938Z,205
2018-03-28T07:34:52.261Z,205
2018-03-28T07:35:52.226Z,215
2018-03-28T07:36:52.000Z,230
2018-03-28T07:37:52.788Z,245
2018-03-28T07:38:52.550Z,260
2018-03-28T07:39:52.290Z,270
2018-03-28T07:40:52.566Z,275
2018-03-28T07:41:52.393Z,280
2018-03-28T07:42:52.617Z,280
2018-03-28T07:43:52.375Z,300
2018-03-28T07:44:52.143Z,295
2018-03-28T07:45:52.165Z,315
2018-03-28T07:46:52.429Z,315
2018-03-28T07:47:52.960Z,280
2018-03-28T07:48:52.968Z,285
2018-03-28T07:49:52.543Z,325
2018-03-28T07:50:52.241Z,320
2018-03-28T07:51:52.772Z,295
2018-03-28T07:52:52.540Z,290
2018-03-28T07:53:53.066Z,280
2018-03-28T07:54:52.571Z,285
2018-03-28T07:55:53.100Z,285
2018-03-28T07:56:52.873Z,285
2018-03-28T07:57:52.624Z,280
2018-03-28T07:58:52.903Z,285
2018-03-28T07:59:52.923Z,290
2018-03-28T08:00:53.190Z,290
2018-03-28T08:01:52.976Z,305
2018-03-28T08:02:52.723Z,285
2018-03-28T08:03:53.128Z,285
2018-03-28T08:04:53.060Z,310
2018-03-28T08:05:53.027Z,285
2018-03-28T08:06:53.065Z,325
2018-03-28T08:07:53.072Z,315
2018-03-28T08:08:53.082Z,310
2018-03-28T08:09:53.098Z,315
2018-03-28T08:10:53.380Z,310
2018-03-28T08:11:53.175Z,300
2018-03-28T08:12:53.167Z,315
2018-03-28T08:13:53.190Z,320
2018-03-28T08:14:53.447Z,335
2018-03-28T08:15:53.220Z,315
2018-03-28T08:16:52.995Z,345
2018-03-28T08:17:53.004Z,345
2018-03-28T08:18:53.585Z,345
2018-03-28T08:19:53.340Z,355
2018-03-28T08:20:53.067Z,370
2018-03-28T08:21:52.822Z,335
2018-03-28T08:22:53.595Z,385
2018-03-28T08:23:53.371Z,375
2018-03-28T08:24:53.132Z,290
2018-03-28T08:25:53.509Z,360
2018-03-28T08:26:53.421Z,355
2018-03-28T08:27:53.191Z,300
2018-03-28T08:28:53.207Z,365
2018-03-28T08:29:53.742Z,305
2018-03-28T08:30:53.261Z,310
2018-03-28T08:31:53.539Z,400
2018-03-28T08:32:54.006Z,345
2018-03-28T08:33:53.568Z,340
2018-03-28T08:34:53.328Z,340
2018-03-28T08:35:53.353Z,325
2018-03-28T08:36:53.424Z,320
2018-03-28T08:37:53.657Z,380
2018-03-28T08:38:53.915Z,305
2018-03-28T08:39:53.946Z,360
2018-03-28T08:40:53.967Z,265
2018-03-28T08:41:53.713Z,255
2018-03-28T08:42:53.760Z,270
2018-03-28T08:43:53.753Z,290
2018-03-28T08:44:54.031Z,350
2018-03-28T08:45:54.045Z,370
2018-03-28T08:46:54.141Z,320
2018-03-28T08:47:54.084Z,365
2018-03-28T08:48:53.858Z,350
2018-03-28T08:49:54.129Z,320
2018-03-28T08:50:53.640Z,305
2018-03-28T08:51:54.068Z,355
2018-03-28T08:52:53.674Z,405
2018-03-28T08:53:54.207Z,350
2018-03-28T08:54:53.966Z,355
2018-03-28T08:55:53.734Z,295
2018-03-28T08:56:54.284Z,325
2018-03-28T08:57:53.526Z,310
2018-03-28T08:58:54.304Z,215
2018-03-28T08:59:54.089Z,210
2018-03-28T09:00:54.099Z,215
2018-03-28T09:01:53.968Z,230
2018-03-28T09:02:54.129Z,265
2018-03-28T09:03:54.157Z,265
2018-03-28T09:04:54.172Z,255
2018-03-28T09:05:54.439Z,255
2018-03-28T09:06:54.013Z,250
2018-03-28T09:07:54.229Z,250
2018-03-28T09:08:53.993Z,275
2018-03-28T09:09:54.013Z,305
2018-03-28T09:10:54.543Z,280
2018-03-28T09:11:54.301Z,335
2018-03-28T09:12:54.322Z,375
2018-03-28T09:13:54.344Z,375
2018-03-28T09:14:54.109Z,395
2018-03-28T09:15:54.639Z,430
2018-03-28T09:16:54.410Z,380
2018-03-28T09:17:54.430Z,530
2018-03-28T09:18:54.455Z,400
2018-03-28T09:19:54.746Z,345
2018-03-28T09:20:54.748Z,325
2018-03-28T09:21:54.572Z,320
2018-03-28T09:22:54.789Z,295
2018-03-28T09:23:54.549Z,300
2018-03-28T09:24:54.059Z,315
2018-03-28T09:25:54.592Z,270
2018-03-28T09:26:54.106Z,240
2018-03-28T09:27:54.884Z,230
2018-03-28T09:28:54.652Z,215
2018-03-28T09:29:54.676Z,215
2018-03-28T09:30:54.443Z,230
2018-03-28T09:31:54.713Z,245
2018-03-28T09:32:54.985Z,270
2018-03-28T09:33:54.762Z,250
2018-03-28T09:34:54.854Z,210
2018-03-28T09:35:55.067Z,195
2018-03-28T09:36:54.625Z,200
2018-03-28T09:37:54.866Z,215
2018-03-28T09:38:55.117Z,215
2018-03-28T09:39:54.888Z,230
2018-03-28T09:40:54.905Z,280
2018-03-28T09:41:54.831Z,315
2018-03-28T09:42:54.433Z,330
2018-03-28T09:43:54.951Z,300
2018-03-28T09:44:55.234Z,260
2018-03-28T09:45:54.749Z,240
2018-03-28T09:46:55.335Z,255
2018-03-28T09:47:54.791Z,295
2018-03-28T09:48:54.565Z,325
2018-03-28T09:49:55.091Z,325
2018-03-28T09:50:54.602Z,310
2018-03-28T09:51:54.875Z,325
2018-03-28T09:52:54.897Z,335
2018-03-28T09:53:55.166Z,350
2018-03-28T09:54:54.928Z,365
2018-03-28T09:55:55.460Z,365
2018-03-28T09:56:55.282Z,340
2018-03-28T09:57:54.991Z,285
2018-03-28T09:58:55.004Z,255
2018-03-28T09:59:54.525Z,210
2018-03-28T10:00:55.299Z,195
2018-03-28T10:01:54.565Z,205
2018-03-28T10:02:55.106Z,210
2018-03-28T10:03:55.117Z,225
2018-03-28T10:04:55.402Z,240
2018-03-28T10:05:55.154Z,245
2018-03-28T10:06:55.196Z,250
2018-03-28T10:07:55.457Z,250
2018-03-28T10:08:55.797Z,255
2018-03-28T10:09:55.738Z,260
2018-03-28T10:10:55.505Z,250
2018-03-28T10:11:55.425Z,250
2018-03-28T10:12:55.547Z,240
2018-03-28T10:13:55.310Z,220
2018-03-28T10:14:55.586Z,230
2018-03-28T10:15:55.421Z,250
2018-03-28T10:16:55.890Z,265
2018-03-28T10:17:55.660Z,250
2018-03-28T10:18:55.920Z,230
2018-03-28T10:19:55.699Z,225
2018-03-28T10:20:55.452Z,245
2018-03-28T10:21:55.779Z,265
2018-03-28T10:22:55.486Z,285
2018-03-28T10:23:56.014Z,300
2018-03-28T10:24:56.033Z,300
2018-03-28T10:25:55.546Z,290
2018-03-28T10:26:55.868Z,285
2018-03-28T10:27:55.841Z,255
2018-03-28T10:28:55.608Z,200
2018-03-28T10:29:56.330Z,180
2018-03-28T10:30:55.651Z,180
2018-03-28T10:31:55.420Z,200
2018-03-28T10:32:55.433Z,205
2018-03-28T10:33:55.964Z,210
2018-03-28T10:34:55.987Z,215
2018-03-28T10:35:55.733Z,235
2018-03-28T10:36:56.012Z,310
2018-03-28T10:37:55.774Z,330
2018-03-28T10:38:55.794Z,265
2018-03-28T10:39:56.321Z,250
2018-03-28T10:40:56.088Z,250
2018-03-28T10:41:55.901Z,285
2018-03-28T10:42:55.871Z,310
2018-03-28T10:43:56.178Z,305
2018-03-28T10:44:56.182Z,290
2018-03-28T10:45:56.201Z,295
2018-03-28T10:46:56.222Z,355
2018-03-28T10:47:56.241Z,370
2018-03-28T10:48:56.024Z,355
2018-03-28T10:49:56.030Z,325
2018-03-28T10:50:56.034Z,340
2018-03-28T10:51:56.338Z,365
2018-03-28T10:52:56.617Z,370
2018-03-28T10:53:56.122Z,345
2018-03-28T10:54:56.386Z,320
2018-03-28T10:55:55.895Z,325
2018-03-28T10:56:56.482Z,325
2018-03-28T10:57:56.446Z,330
2018-03-28T10:58:56.206Z,330
2018-03-28T10:59:56.479Z,360
2018-03-28T11:00:56.249Z,355
2018-03-28T11:01:56.531Z,355
2018-03-28T11:02:56.299Z,350
2018-03-28T11:03:56.836Z,380
2018-03-28T11:04:56.078Z,385
2018-03-28T11:05:56.586Z,340
2018-03-28T11:06:56.109Z,320
2018-03-28T11:07:56.999Z,340
2018-03-28T11:08:56.873Z,360
2018-03-28T11:09:56.688Z,365
2018-03-28T11:10:56.757Z,360
2018-03-28T11:11:57.029Z,415
2018-03-28T11:12:57.002Z,445
2018-03-28T11:13:57.017Z,470
2018-03-28T11:14:56.549Z,395
2018-03-28T11:15:56.551Z,430
2018-03-28T11:16:56.577Z,485
2018-03-28T11:17:56.863Z,530
2018-03-28T11:18:56.866Z,500
2018-03-28T11:19:56.380Z,510
2018-03-28T11:20:56.652Z,525
2018-03-28T11:21:57.670Z,400
2018-03-28T11:22:57.201Z,315
2018-03-28T11:23:57.225Z,290
2018-03-28T11:24:57.242Z,255
2018-03-28T11:25:57.465Z,250
2018-03-28T11:26:57.023Z,230
2018-03-28T11:27:57.102Z,225
2018-03-28T11:28:56.809Z,240
2018-03-28T11:29:57.081Z,245
2018-03-28T11:30:57.106Z,245
2018-03-28T11:31:57.138Z,220
2018-03-28T11:32:56.384Z,220
2018-03-28T11:33:56.914Z,195
2018-03-28T11:34:57.183Z,180
2018-03-28T11:35:56.943Z,200
2018-03-28T11:36:56.991Z,220
2018-03-28T11:37:57.745Z,220
2018-03-28T11:38:57.020Z,200
2018-03-28T11:39:57.039Z,225
2018-03-28T11:40:57.069Z,240
2018-03-28T11:41:57.341Z,350
2018-03-28T11:42:57.204Z,445
2018-03-28T11:43:57.112Z,430
2018-03-28T11:44:57.460Z,365
2018-03-28T11:45:57.442Z,325
2018-03-28T11:46:57.440Z,375
2018-03-28T11:47:57.255Z,560
2018-03-28T11:48:57.217Z,400
2018-03-28T11:49:57.491Z,370
2018-03-28T11:50:57.504Z,350
2018-03-28T11:51:57.538Z,350
2018-03-28T11:52:57.982Z,340
2018-03-28T11:53:57.318Z,330
2018-03-28T11:54:57.612Z,360
2018-03-28T11:55:57.375Z,455
2018-03-28T11:56:57.889Z,410
2018-03-28T11:57:57.924Z,380
2018-03-28T11:58:57.953Z,270
2018-03-28T11:59:57.192Z,195
2018-03-28T12:00:57.981Z,145
2018-03-28T12:01:57.228Z,135
2018-03-28T12:02:57.816Z,155
2018-03-28T12:03:57.269Z,155
2018-03-28T12:04:57.782Z,145
2018-03-28T12:05:58.065Z,115
2018-03-28T12:06:57.833Z,95
2018-03-28T12:07:57.619Z,95
2018-03-28T12:08:57.625Z,100
2018-03-28T12:09:58.150Z,125
2018-03-28T12:10:57.670Z,145
2018-03-28T12:11:57.436Z,140
2018-03-28T12:12:57.709Z,130
2018-03-28T12:13:57.986Z,140
2018-03-28T12:14:58.303Z,150
2018-03-28T12:15:58.041Z,145
2018-03-28T12:16:58.315Z,140
2018-03-28T12:17:57.857Z,135
2018-03-28T12:18:58.150Z,130
2018-03-28T12:19:58.354Z,130
2018-03-28T12:20:57.919Z,135
2018-03-28T12:21:58.391Z,140
2018-03-28T12:22:57.920Z,145
2018-03-28T12:23:58.182Z,150
2018-03-28T12:24:58.490Z,165
2018-03-28T12:25:58.475Z,180
2018-03-28T12:26:58.572Z,185
2018-03-28T12:27:58.015Z,210
2018-03-28T12:28:58.282Z,215
2018-03-28T12:29:58.552Z,260
2018-03-28T12:30:58.055Z,350
2018-03-28T12:31:58.083Z,470
2018-03-28T12:32:58.390Z,670
2018-03-28T12:33:58.404Z,520
2018-03-28T12:34:58.381Z,435
2018-03-28T12:35:58.432Z,345
2018-03-28T12:36:58.494Z,310
2018-03-28T12:37:58.200Z,260
2018-03-28T12:38:58.708Z,230
2018-03-28T12:39:58.471Z,230
2018-03-28T12:40:58.499Z,240
2018-03-28T12:41:58.300Z,285
2018-03-28T12:42:58.301Z,260
2018-03-28T12:43:58.580Z,240
2018-03-28T12:44:58.342Z,230
2018-03-28T12:45:58.619Z,235
2018-03-28T12:46:58.909Z,225
2018-03-28T12:47:58.717Z,225
2018-03-28T12:48:58.685Z,190
2018-03-28T12:49:58.470Z,155
2018-03-28T12:50:59.108Z,160
2018-03-28T12:51:59.030Z,175
2018-03-28T12:52:58.510Z,230
2018-03-28T12:53:58.534Z,280
2018-03-28T12:54:58.826Z,335
2018-03-28T12:55:59.068Z,440
2018-03-28T12:56:58.581Z,535
2018-03-28T12:57:58.865Z,625
2018-03-28T12:58:59.129Z,690
2018-03-28T12:59:59.145Z,775
2018-03-28T13:00:58.662Z,685
2018-03-28T13:01:59.196Z,940
2018-03-28T13:02:58.997Z,1190
2018-03-28T13:03:58.978Z,790
2018-03-28T13:04:59.311Z,795
2018-03-28T13:05:59.021Z,1720
2018-03-28T13:06:59.307Z,1085
2018-03-28T13:07:58.920Z,750
2018-03-28T13:08:59.223Z,485
2018-03-28T13:09:59.363Z,455
2018-03-28T13:10:59.136Z,535
2018-03-28T13:11:59.167Z,325
2018-03-28T13:12:59.431Z,270
2018-03-28T13:13:58.940Z,235
2018-03-28T13:14:58.963Z,225
2018-03-28T13:15:58.729Z,225
2018-03-28T13:16:59.262Z,225
2018-03-28T13:17:59.297Z,210
2018-03-28T13:18:59.056Z,200
2018-03-28T13:19:59.133Z,180
2018-03-28T13:20:59.354Z,170
2018-03-28T13:21:58.607Z,170
2018-03-28T13:22:59.642Z,165
2018-03-28T13:23:59.666Z,150
2018-03-28T13:24:59.828Z,140
2018-03-28T13:25:59.457Z,135
2018-03-28T13:26:59.482Z,135
2018-03-28T13:27:59.245Z,145
2018-03-28T13:28:59.006Z,155
2018-03-28T13:29:59.586Z,155
2018-03-28T13:30:59.555Z,145
2018-03-28T13:31:59.582Z,140
2018-03-28T13:32:59.594Z,140
2018-03-28T13:33:59.865Z,135
2018-03-28T13:34:59.644Z,135
2018-03-28T13:35:59.401Z,155
2018-03-28T13:36:59.424Z,170
2018-03-28T13:37:59.951Z,170
2018-03-28T13:38:59.714Z,165
2018-03-28T13:39:59.481Z,165
2018-03-28T13:40:59.782Z,160
2018-03-28T13:41:59.526Z,155
2018-03-28T13:42:59.806Z,145
2018-03-28T13:43:59.570Z,145
2018-03-28T13:44:59.389Z,145
2018-03-28T13:45:59.872Z,145
2018-03-28T13:46:59.883Z,145
2018-03-28T13:48:00.156Z,145
2018-03-28T13:48:59.410Z,145
2018-03-28T13:49:59.948Z,150
2018-03-28T13:50:59.952Z,150
2018-03-28T13:52:00.088Z,150
2018-03-28T13:52:59.756Z,155
2018-03-28T13:54:00.019Z,165
2018-03-28T13:54:59.778Z,170
2018-03-28T13:56:00.302Z,175
2018-03-28T13:56:59.575Z,170
2018-03-28T13:58:00.371Z,165
2018-03-28T13:59:00.370Z,165
2018-03-28T13:59:59.946Z,160
2018-03-28T14:00:59.919Z,170
2018-03-28T14:02:00.178Z,185
2018-03-28T14:02:59.975Z,205
2018-03-28T14:03:59.973Z,210
2018-03-28T14:05:00.035Z,210
2018-03-28T14:05:59.762Z,200
2018-03-28T14:07:00.287Z,190
2018-03-28T14:08:00.048Z,175
2018-03-28T14:08:59.811Z,165
2018-03-28T14:10:00.354Z,160
2018-03-28T14:11:00.107Z,150
2018-03-28T14:12:00.132Z,150